createdAt,value
2019-01-26T00:01:21.442Z,98105.20
2019-01-26T00:03:47.608Z,98103.64
2019-01-26T00:06:13.911Z,98108.97
2019-01-26T00:08:40.068Z,98104.95
2019-01-26T00:11:06.231Z,98108.25
2019-01-26T00:13:32.430Z,98118.57
2019-01-26T00:15:58.702Z,98127.08
2019-01-26T00:18:24.954Z,98109.44
2019-01-26T00:20:51.149Z,98121.37
2019-01-26T00:23:17.405Z,98128.75
2019-01-26T00:25:43.563Z,98129.59
2019-01-26T00:28:09.754Z,98123.08
2019-01-26T00:30:35.912Z,98131.80
2019-01-26T00:33:02.076Z,98142.94
2019-01-26T00:35:28.506Z,98147.99
2019-01-26T00:37:54.764Z,98159.05
2019-01-26T00:40:21.021Z,98147.83
2019-01-26T00:42:47.222Z,98170.28
2019-01-26T00:45:13.374Z,98167.55
2019-01-26T00:47:39.527Z,98158.23
2019-01-26T00:50:11.000Z,98157.41
2019-01-26T00:52:37.156Z,98163.38
2019-01-26T00:55:05.315Z,98162.94
2019-01-26T00:57:31.607Z,98167.27
2019-01-26T00:59:57.760Z,98166.23
2019-01-26T01:02:23.910Z,98172.86
2019-01-26T01:04:50.304Z,98164.91
2019-01-26T01:07:16.458Z,98173.61
2019-01-26T01:09:42.631Z,98175.86
2019-01-26T01:12:08.894Z,98181.46
2019-01-26T01:14:35.042Z,98200.61
2019-01-26T01:17:01.190Z,98199.09
2019-01-26T01:19:27.372Z,98186.23
2019-01-26T01:21:53.639Z,98183.41
2019-01-26T01:24:19.978Z,98177.18
2019-01-26T01:26:46.172Z,98165.33
2019-01-26T01:29:12.428Z,98171.63
2019-01-26T01:31:38.578Z,98177.69
2019-01-26T01:34:04.758Z,98181.67
2019-01-26T01:36:30.908Z,98186.01
2019-01-26T01:38:57.072Z,98191.95
2019-01-26T01:41:23.253Z,98189.59
2019-01-26T01:43:49.402Z,98185.94
2019-01-26T01:46:15.550Z,98190.27
2019-01-26T01:48:41.747Z,98193.33
2019-01-26T01:51:07.990Z,98194.81
2019-01-26T01:53:34.138Z,98192.93
2019-01-26T01:56:00.323Z,98191.72
2019-01-26T01:58:26.479Z,98188.58
2019-01-26T02:00:52.640Z,98194.80
2019-01-26T02:03:18.827Z,98212.24
2019-01-26T02:05:44.985Z,98209.58
2019-01-26T02:08:11.135Z,98203.97
2019-01-26T02:10:37.340Z,98199.36
2019-01-26T02:13:03.593Z,98204.61
2019-01-26T02:15:29.749Z,98204.45
2019-01-26T02:17:55.942Z,98201.66
2019-01-26T02:20:22.096Z,98204.27
2019-01-26T02:22:48.247Z,98210.64
2019-01-26T02:25:14.521Z,98213.62
2019-01-26T02:27:40.673Z,98210.39
2019-01-26T02:30:16.075Z,98203.95
2019-01-26T02:32:42.228Z,98206.94
2019-01-26T02:35:08.383Z,98205.01
2019-01-26T02:37:34.565Z,98216.56
2019-01-26T02:40:00.717Z,98211.03
2019-01-26T02:42:26.866Z,98211.60
2019-01-26T02:44:53.049Z,98214.62
2019-01-26T02:47:19.204Z,98212.83
2019-01-26T02:49:45.359Z,98221.93
2019-01-26T02:52:11.545Z,98223.54
2019-01-26T02:54:37.694Z,98232.19
2019-01-26T02:57:03.856Z,98232.70
2019-01-26T02:59:30.040Z,98237.25
2019-01-26T03:01:56.191Z,98241.00
2019-01-26T03:04:22.341Z,98239.82
2019-01-26T03:06:48.536Z,98243.27
2019-01-26T03:09:14.682Z,98247.81
2019-01-26T03:11:40.847Z,98249.15
2019-01-26T03:14:07.136Z,98252.14
2019-01-26T03:16:33.287Z,98248.84
2019-01-26T03:18:59.442Z,98251.09
2019-01-26T03:21:25.624Z,98254.65
2019-01-26T03:23:51.872Z,98257.59
2019-01-26T03:26:18.029Z,98264.17
2019-01-26T03:28:44.206Z,98264.75
2019-01-26T03:31:10.365Z,98269.88
2019-01-26T03:33:36.523Z,98272.02
2019-01-26T03:36:03.270Z,98282.75
2019-01-26T03:38:29.516Z,98286.61
2019-01-26T03:40:55.771Z,98284.72
2019-01-26T03:43:22.068Z,98279.45
2019-01-26T03:45:48.223Z,98276.39
2019-01-26T03:48:14.383Z,98270.66
2019-01-26T03:50:40.575Z,98279.34
2019-01-26T03:53:06.743Z,98276.14
2019-01-26T03:55:32.887Z,98273.51
2019-01-26T03:57:59.188Z,98270.23
2019-01-26T04:00:26.044Z,98267.78
2019-01-26T04:02:52.514Z,98282.75
2019-01-26T04:05:18.818Z,98279.67
2019-01-26T04:07:45.274Z,98279.28
2019-01-26T04:10:13.329Z,98287.64
2019-01-26T04:12:39.535Z,98292.00
2019-01-26T04:15:09.199Z,98287.34
2019-01-26T04:17:35.401Z,98297.00
2019-01-26T04:20:03.786Z,98300.30
2019-01-26T04:22:30.050Z,98289.00
2019-01-26T04:24:56.198Z,98296.25
2019-01-26T04:27:22.473Z,98295.97
2019-01-26T04:29:48.619Z,98296.09
2019-01-26T04:32:14.784Z,98301.94
2019-01-26T04:34:40.980Z,98304.01
2019-01-26T04:37:07.135Z,98302.76
2019-01-26T04:39:33.291Z,98310.25
2019-01-26T04:41:59.487Z,98303.09
2019-01-26T04:44:25.750Z,98314.81
2019-01-26T04:46:51.918Z,98310.28
2019-01-26T04:49:18.131Z,98314.72
2019-01-26T04:51:44.293Z,98320.73
2019-01-26T04:54:10.438Z,98333.31
2019-01-26T04:56:36.628Z,98334.36
2019-01-26T04:59:02.767Z,98330.70
2019-01-26T05:01:28.928Z,98340.37
2019-01-26T05:03:55.120Z,98344.17
2019-01-26T05:06:21.273Z,98348.17
2019-01-26T05:08:47.426Z,98347.12
2019-01-26T05:11:13.626Z,98353.78
2019-01-26T05:13:39.879Z,98349.23
2019-01-26T05:16:06.042Z,98356.45
2019-01-26T05:18:32.242Z,98360.91
2019-01-26T05:20:58.491Z,98352.73
2019-01-26T05:23:24.650Z,98355.77
2019-01-26T05:25:50.837Z,98354.22
2019-01-26T05:28:17.103Z,98362.80
2019-01-26T05:30:43.259Z,98360.17
2019-01-26T05:33:09.455Z,98358.56
2019-01-26T05:35:35.606Z,98359.98
2019-01-26T05:38:01.760Z,98360.73
2019-01-26T05:40:27.945Z,98369.41
2019-01-26T05:42:54.099Z,98369.87
2019-01-26T05:45:21.155Z,98371.57
2019-01-26T05:47:49.500Z,98371.70
2019-01-26T05:50:18.539Z,98376.09
2019-01-26T05:52:44.800Z,98382.78
2019-01-26T05:55:11.190Z,98378.81
2019-01-26T05:57:37.345Z,98382.34
2019-01-26T06:00:07.203Z,98378.83
2019-01-26T06:02:33.389Z,98375.86
2019-01-26T06:04:59.559Z,98387.69
2019-01-26T06:07:25.721Z,98395.66
2019-01-26T06:09:51.904Z,98408.56
2019-01-26T06:12:18.053Z,98411.62
2019-01-26T06:14:44.211Z,98408.70
2019-01-26T06:17:10.454Z,98421.28
2019-01-26T06:19:36.613Z,98428.50
2019-01-26T06:22:02.764Z,98424.47
2019-01-26T06:24:28.942Z,98429.78
2019-01-26T06:26:55.091Z,98428.31
2019-01-26T06:29:21.249Z,98439.28
2019-01-26T06:31:47.430Z,98446.08
2019-01-26T06:34:13.689Z,98442.88
2019-01-26T06:36:40.378Z,98444.59
2019-01-26T06:39:06.560Z,98449.50
2019-01-26T06:41:32.703Z,98457.01
2019-01-26T06:43:58.861Z,98463.18
2019-01-26T06:46:25.150Z,98467.22
2019-01-26T06:48:53.202Z,98464.63
2019-01-26T06:51:19.354Z,98469.36
2019-01-26T06:53:45.544Z,98472.78
2019-01-26T06:56:11.715Z,98475.11
2019-01-26T06:58:37.978Z,98479.97
2019-01-26T07:01:04.170Z,98476.05
2019-01-26T07:03:30.326Z,98482.44
2019-01-26T07:05:58.395Z,98476.37
2019-01-26T07:08:24.588Z,98477.75
2019-01-26T07:10:50.753Z,98473.63
2019-01-26T07:13:16.907Z,98482.09
2019-01-26T07:15:43.111Z,98484.49
2019-01-26T07:18:09.808Z,98484.39
2019-01-26T07:20:36.189Z,98492.91
2019-01-26T07:23:02.369Z,98496.81
2019-01-26T07:25:28.551Z,98493.74
2019-01-26T07:27:54.690Z,98493.45
2019-01-26T07:30:22.470Z,98492.70
2019-01-26T07:32:48.600Z,98500.81
2019-01-26T07:35:14.841Z,98490.92
2019-01-26T07:37:41.043Z,98502.98
2019-01-26T07:40:10.902Z,98517.01
2019-01-26T07:42:37.172Z,98515.42
2019-01-26T07:45:06.957Z,98518.13
2019-01-26T07:47:33.223Z,98511.25
2019-01-26T07:49:59.813Z,98503.56
2019-01-26T07:52:26.120Z,98506.16
2019-01-26T07:54:52.281Z,98496.50
2019-01-26T07:57:18.436Z,98501.25
2019-01-26T07:59:44.627Z,98510.04
2019-01-26T08:02:10.785Z,98509.92
2019-01-26T08:04:36.939Z,98510.91
2019-01-26T08:07:03.228Z,98503.93
2019-01-26T08:09:29.383Z,98496.89
2019-01-26T08:11:55.546Z,98498.39
2019-01-26T08:14:21.736Z,98504.81
2019-01-26T08:16:47.903Z,98500.20
2019-01-26T08:19:14.124Z,98499.19
2019-01-26T08:21:40.310Z,98508.67
2019-01-26T08:24:06.865Z,98503.29
2019-01-26T08:26:33.022Z,98512.18
2019-01-26T08:28:59.198Z,98512.38
2019-01-26T08:31:25.357Z,98520.02
2019-01-26T08:33:51.520Z,98528.13
2019-01-26T08:36:17.709Z,98526.91
2019-01-26T08:38:43.864Z,98529.64
2019-01-26T08:41:10.138Z,98531.86
2019-01-26T08:43:36.424Z,98532.14
2019-01-26T08:46:02.582Z,98532.53
2019-01-26T08:48:31.297Z,98533.02
2019-01-26T08:50:56.850Z,98533.92
2019-01-26T08:53:23.015Z,98531.28
2019-01-26T08:55:49.183Z,98544.08
2019-01-26T08:58:15.473Z,98543.34
2019-01-26T09:00:41.618Z,98536.48
2019-01-26T09:03:09.666Z,98547.66
2019-01-26T09:05:37.760Z,98557.12
2019-01-26T09:08:04.120Z,98557.70
2019-01-26T09:10:30.278Z,98567.21
2019-01-26T09:12:56.578Z,98566.86
2019-01-26T09:15:23.633Z,98564.80
2019-01-26T09:17:49.824Z,98563.52
2019-01-26T09:20:17.104Z,98569.40
2019-01-26T09:22:45.065Z,98574.97
2019-01-26T09:25:11.623Z,98572.16
2019-01-26T09:27:38.487Z,98574.55
2019-01-26T09:30:15.927Z,98563.20
2019-01-26T09:32:42.111Z,98565.55
2019-01-26T09:35:08.364Z,98569.23
2019-01-26T09:37:34.921Z,98566.01
2019-01-26T09:40:01.503Z,98566.72
2019-01-26T09:42:27.812Z,98572.59
2019-01-26T09:44:54.059Z,98564.92
2019-01-26T09:47:20.292Z,98561.86
2019-01-26T09:49:46.409Z,98558.91
2019-01-26T09:52:12.671Z,98558.30
2019-01-26T09:54:38.869Z,98564.66
2019-01-26T09:57:05.124Z,98568.73
2019-01-26T09:59:31.282Z,98570.03
2019-01-26T10:01:57.468Z,98568.03
2019-01-26T10:04:23.618Z,98574.30
2019-01-26T10:06:49.780Z,98567.71
2019-01-26T10:09:15.958Z,98571.61
2019-01-26T10:11:42.114Z,98566.73
2019-01-26T10:14:08.278Z,98565.39
2019-01-26T10:16:34.484Z,98566.53
2019-01-26T10:19:00.647Z,98562.25
2019-01-26T10:21:26.852Z,98565.12
2019-01-26T10:23:53.041Z,98565.83
2019-01-26T10:26:19.191Z,98574.80
2019-01-26T10:28:45.353Z,98574.95
2019-01-26T10:31:11.540Z,98569.96
2019-01-26T10:33:37.694Z,98572.23
2019-01-26T10:36:05.759Z,98573.10
2019-01-26T10:38:33.859Z,98576.38
2019-01-26T10:41:01.921Z,98573.78
2019-01-26T10:43:32.517Z,98581.30
2019-01-26T10:45:58.808Z,98581.34
2019-01-26T10:48:24.960Z,98584.41
2019-01-26T10:50:51.115Z,98582.09
2019-01-26T10:53:17.310Z,98586.19
2019-01-26T10:55:43.471Z,98579.56
2019-01-26T10:58:09.636Z,98578.98
2019-01-26T11:00:35.832Z,98575.33
2019-01-26T11:03:02.079Z,98577.00
2019-01-26T11:05:30.852Z,98575.16
2019-01-26T11:07:59.255Z,98567.98
2019-01-26T11:10:25.891Z,98566.30
2019-01-26T11:12:52.042Z,98577.47
2019-01-26T11:15:18.350Z,98573.98
2019-01-26T11:17:44.504Z,98573.34
2019-01-26T11:20:12.958Z,98580.02
2019-01-26T11:22:39.480Z,98582.00
2019-01-26T11:25:08.902Z,98579.25
2019-01-26T11:27:35.305Z,98583.32
2019-01-26T11:30:01.595Z,98581.38
2019-01-26T11:32:27.857Z,98581.17
2019-01-26T11:34:54.021Z,98582.87
2019-01-26T11:37:20.306Z,98584.24
2019-01-26T11:39:48.367Z,98584.11
2019-01-26T11:42:14.523Z,98588.58
2019-01-26T11:44:42.619Z,98587.21
2019-01-26T11:47:08.872Z,98585.82
2019-01-26T11:49:35.135Z,98594.33
2019-01-26T11:52:07.008Z,98580.90
2019-01-26T11:54:33.263Z,98582.09
2019-01-26T11:56:59.610Z,98586.35
2019-01-26T11:59:25.924Z,98580.67
2019-01-26T12:01:53.978Z,98575.91
2019-01-26T12:04:24.849Z,98574.63
2019-01-26T12:06:52.921Z,98575.08
2019-01-26T12:09:19.307Z,98575.89
2019-01-26T12:11:45.574Z,98575.19
2019-01-26T12:14:11.769Z,98578.20
2019-01-26T12:16:37.932Z,98587.16
2019-01-26T12:19:04.090Z,98576.30
2019-01-26T12:21:30.289Z,98579.22
2019-01-26T12:23:56.509Z,98579.84
2019-01-26T12:26:22.712Z,98584.96
2019-01-26T12:28:49.076Z,98575.66
2019-01-26T12:31:15.236Z,98578.61
2019-01-26T12:33:41.503Z,98581.25
2019-01-26T12:36:07.790Z,98575.39
2019-01-26T12:38:34.519Z,98570.38
2019-01-26T12:41:00.774Z,98575.92
2019-01-26T12:43:27.077Z,98576.23
2019-01-26T12:45:53.249Z,98569.78
2019-01-26T12:48:19.524Z,98569.28
2019-01-26T12:50:45.716Z,98569.48
2019-01-26T12:53:11.872Z,98571.05
2019-01-26T12:55:38.029Z,98575.89
2019-01-26T12:58:04.318Z,98571.31
2019-01-26T13:00:30.564Z,98581.11
2019-01-26T13:02:56.818Z,98583.94
2019-01-26T13:05:25.905Z,98582.97
2019-01-26T13:07:54.348Z,98581.89
2019-01-26T13:10:36.115Z,98585.45
2019-01-26T13:13:03.379Z,98585.36
2019-01-26T13:15:29.525Z,98587.67
2019-01-26T13:17:55.714Z,98602.25
2019-01-26T13:20:21.881Z,98596.91
2019-01-26T13:22:48.054Z,98600.55
2019-01-26T13:25:16.985Z,98591.94
2019-01-26T13:27:43.163Z,98592.53
2019-01-26T13:30:12.897Z,98585.92
2019-01-26T13:32:39.084Z,98592.55
2019-01-26T13:35:06.864Z,98592.48
2019-01-26T13:37:33.015Z,98594.75
2019-01-26T13:39:59.187Z,98597.53
2019-01-26T13:42:25.444Z,98601.72
2019-01-26T13:44:51.717Z,98597.91
2019-01-26T13:47:17.905Z,98604.45
2019-01-26T13:49:44.298Z,98610.78
2019-01-26T13:52:10.730Z,98596.44
2019-01-26T13:54:37.030Z,98602.98
2019-01-26T13:57:03.492Z,98597.34
2019-01-26T13:59:29.778Z,98604.44
2019-01-26T14:01:55.983Z,98607.33
2019-01-26T14:04:22.144Z,98606.62
2019-01-26T14:06:48.351Z,98608.58
2019-01-26T14:09:15.296Z,98613.30
2019-01-26T14:11:41.455Z,98617.16
2019-01-26T14:14:07.774Z,98621.91
2019-01-26T14:16:34.107Z,98617.59
2019-01-26T14:19:00.267Z,98625.23
2019-01-26T14:21:26.423Z,98618.52
2019-01-26T14:23:52.636Z,98620.95
2019-01-26T14:26:18.899Z,98618.43
2019-01-26T14:28:45.052Z,98619.39
2019-01-26T14:31:11.636Z,98626.94
2019-01-26T14:33:37.784Z,98624.37
2019-01-26T14:36:04.053Z,98622.34
2019-01-26T14:38:34.415Z,98622.55
2019-01-26T14:41:00.847Z,98623.91
2019-01-26T14:43:27.417Z,98631.09
2019-01-26T14:45:53.709Z,98634.31
2019-01-26T14:48:19.978Z,98640.52
2019-01-26T14:50:47.809Z,98643.91
2019-01-26T14:53:14.017Z,98639.91
2019-01-26T14:55:40.175Z,98645.81
2019-01-26T14:58:06.451Z,98645.63
2019-01-26T15:00:37.364Z,98646.66
2019-01-26T15:03:03.925Z,98650.51
2019-01-26T15:05:30.289Z,98651.48
2019-01-26T15:07:58.030Z,98645.53
2019-01-26T15:10:24.293Z,98646.34
2019-01-26T15:12:50.450Z,98648.75
2019-01-26T15:15:18.945Z,98649.06
2019-01-26T15:17:45.112Z,98659.42
2019-01-26T15:20:17.662Z,98656.60
2019-01-26T15:22:43.965Z,98655.42
2019-01-26T15:25:10.132Z,98658.42
2019-01-26T15:27:36.341Z,98659.80
2019-01-26T15:30:06.152Z,98655.72
2019-01-26T15:32:32.313Z,98667.11
2019-01-26T15:34:58.466Z,98675.58
2019-01-26T15:37:24.638Z,98673.05
2019-01-26T15:39:51.190Z,98679.50
2019-01-26T15:42:17.342Z,98672.42
2019-01-26T15:44:43.541Z,98680.00
2019-01-26T15:47:09.700Z,98681.32
2019-01-26T15:49:35.965Z,98683.96
2019-01-26T15:52:02.270Z,98690.13
2019-01-26T15:54:28.525Z,98688.13
2019-01-26T15:56:54.785Z,98698.25
2019-01-26T15:59:20.990Z,98698.27
2019-01-26T16:01:47.306Z,98697.72
2019-01-26T16:04:13.575Z,98694.34
2019-01-26T16:06:39.786Z,98704.23
2019-01-26T16:09:06.550Z,98709.38
2019-01-26T16:11:32.800Z,98720.89
2019-01-26T16:13:59.089Z,98721.53
2019-01-26T16:16:25.359Z,98722.69
2019-01-26T16:18:51.516Z,98726.81
2019-01-26T16:21:17.706Z,98721.95
2019-01-26T16:23:43.886Z,98727.17
2019-01-26T16:26:10.162Z,98729.98
2019-01-26T16:28:36.535Z,98729.02
2019-01-26T16:31:02.694Z,98742.67
2019-01-26T16:33:28.958Z,98739.10
2019-01-26T16:35:55.142Z,98745.70
2019-01-26T16:38:21.420Z,98748.91
2019-01-26T16:40:47.703Z,98755.64
2019-01-26T16:43:13.882Z,98757.13
2019-01-26T16:45:40.037Z,98755.96
2019-01-26T16:48:08.400Z,98767.19
2019-01-26T16:50:34.597Z,98773.58
2019-01-26T16:53:00.757Z,98771.42
2019-01-26T16:55:26.925Z,98768.59
2019-01-26T16:57:53.215Z,98773.59
2019-01-26T17:00:29.011Z,98771.72
2019-01-26T17:02:55.200Z,98772.24
2019-01-26T17:05:25.775Z,98777.29
2019-01-26T17:07:49.411Z,98777.12
2019-01-26T17:10:19.869Z,98768.95
2019-01-26T17:12:46.090Z,98772.27
2019-01-26T17:15:12.444Z,98771.14
2019-01-26T17:17:38.633Z,98781.11
2019-01-26T17:20:14.551Z,98781.28
2019-01-26T17:22:40.740Z,98787.80
2019-01-26T17:25:06.907Z,98781.79
2019-01-26T17:27:33.066Z,98792.45
2019-01-26T17:29:59.304Z,98781.44
2019-01-26T17:32:25.461Z,98785.98
2019-01-26T17:34:53.564Z,98783.47
2019-01-26T17:37:19.863Z,98790.76
2019-01-26T17:39:46.020Z,98789.98
2019-01-26T17:42:12.189Z,98793.47
2019-01-26T17:44:38.376Z,98795.97
2019-01-26T17:47:06.691Z,98791.88
2019-01-26T17:49:32.848Z,98787.98
2019-01-26T17:51:59.029Z,98790.92
2019-01-26T17:54:25.209Z,98793.27
2019-01-26T17:56:51.360Z,98793.81
2019-01-26T17:59:17.554Z,98786.61
2019-01-26T18:01:43.817Z,98778.22
2019-01-26T18:04:10.081Z,98786.27
2019-01-26T18:06:36.271Z,98781.17
2019-01-26T18:09:05.042Z,98784.38
2019-01-26T18:11:31.195Z,98783.51
2019-01-26T18:13:57.384Z,98785.95
2019-01-26T18:16:23.544Z,98791.42
2019-01-26T18:18:49.804Z,98793.72
2019-01-26T18:21:16.023Z,98790.10
2019-01-26T18:23:42.281Z,98791.02
2019-01-26T18:26:08.437Z,98785.80
2019-01-26T18:28:34.741Z,98783.03
2019-01-26T18:31:01.040Z,98786.14
2019-01-26T18:33:27.193Z,98788.30
2019-01-26T18:35:53.394Z,98782.47
2019-01-26T18:38:19.546Z,98776.69
2019-01-26T18:40:46.216Z,98770.88
2019-01-26T18:43:12.562Z,98763.17
2019-01-26T18:45:38.709Z,98766.48
2019-01-26T18:48:05.256Z,98769.44
2019-01-26T18:50:34.910Z,98771.14
2019-01-26T18:53:01.410Z,98774.20
2019-01-26T18:55:27.566Z,98777.12
2019-01-26T18:57:53.756Z,98771.62
2019-01-26T19:00:22.522Z,98777.77
2019-01-26T19:02:55.091Z,98775.97
2019-01-26T19:05:22.152Z,98769.84
2019-01-26T19:07:48.306Z,98775.49
2019-01-26T19:10:14.596Z,98778.38
2019-01-26T19:12:40.756Z,98789.31
2019-01-26T19:15:10.515Z,98785.12
2019-01-26T19:17:36.706Z,98788.59
2019-01-26T19:20:06.272Z,98795.47
2019-01-26T19:22:32.436Z,98788.30
2019-01-26T19:24:58.623Z,98791.77
2019-01-26T19:27:24.777Z,98771.81
2019-01-26T19:29:50.950Z,98782.52
2019-01-26T19:32:18.170Z,98780.90
2019-01-26T19:34:44.325Z,98783.48
2019-01-26T19:37:10.644Z,98782.33
2019-01-26T19:39:36.826Z,98788.14
2019-01-26T19:42:03.485Z,98781.20
2019-01-26T19:44:29.647Z,98778.35
2019-01-26T19:46:55.949Z,98778.80
2019-01-26T19:49:22.103Z,98776.20
2019-01-26T19:51:48.378Z,98771.63
2019-01-26T19:54:14.673Z,98769.57
2019-01-26T19:56:40.930Z,98774.34
2019-01-26T19:59:07.085Z,98776.70
2019-01-26T20:01:33.272Z,98780.94
2019-01-26T20:03:59.432Z,98782.94
2019-01-26T20:06:25.622Z,98779.75
2019-01-26T20:08:51.967Z,98779.73
2019-01-26T20:11:18.121Z,98776.95
2019-01-26T20:13:44.278Z,98772.45
2019-01-26T20:16:10.571Z,98779.13
2019-01-26T20:18:36.822Z,98769.13
2019-01-26T20:21:03.888Z,98765.85
2019-01-26T20:23:30.109Z,98762.11
2019-01-26T20:25:56.382Z,98757.74
2019-01-26T20:28:22.555Z,98747.79
2019-01-26T20:30:48.732Z,98742.42
2019-01-26T20:33:15.767Z,98741.27
2019-01-26T20:35:41.936Z,98735.31
2019-01-26T20:38:08.125Z,98737.22
2019-01-26T20:40:34.382Z,98732.86
2019-01-26T20:43:00.541Z,98728.81
2019-01-26T20:45:31.002Z,98736.89
2019-01-26T20:47:57.256Z,98735.34
2019-01-26T20:50:23.513Z,98736.52
2019-01-26T20:52:49.800Z,98732.86
2019-01-26T20:55:15.966Z,98730.83
2019-01-26T20:57:42.223Z,98733.93
2019-01-26T21:00:29.435Z,98734.63
2019-01-26T21:02:55.704Z,98733.80
2019-01-26T21:05:21.881Z,98731.75
2019-01-26T21:07:48.123Z,98733.27
2019-01-26T21:10:19.636Z,98725.20
2019-01-26T21:12:46.000Z,98722.12
2019-01-26T21:15:12.297Z,98722.89
2019-01-26T21:17:38.454Z,98720.89
2019-01-26T21:20:12.777Z,98715.67
2019-01-26T21:22:41.479Z,98718.63
2019-01-26T21:25:10.333Z,98716.09
2019-01-26T21:27:36.590Z,98701.20
2019-01-26T21:30:07.281Z,98706.43
2019-01-26T21:32:33.518Z,98709.16
2019-01-26T21:34:59.932Z,98707.65
2019-01-26T21:37:26.230Z,98715.08
2019-01-26T21:39:52.491Z,98719.05
2019-01-26T21:42:19.059Z,98714.54
2019-01-26T21:44:45.339Z,98713.13
2019-01-26T21:47:11.511Z,98708.94
2019-01-26T21:49:37.784Z,98706.09
2019-01-26T21:52:03.974Z,98709.98
2019-01-26T21:54:30.254Z,98710.09
2019-01-26T21:56:56.409Z,98706.81
2019-01-26T21:59:22.700Z,98719.00
2019-01-26T22:01:56.420Z,98712.52
2019-01-26T22:04:22.751Z,98715.06
2019-01-26T22:06:49.061Z,98717.17
2019-01-26T22:09:15.219Z,98717.66
2019-01-26T22:11:42.406Z,98710.68
2019-01-26T22:14:08.732Z,98715.02
2019-01-26T22:16:37.013Z,98715.02
2019-01-26T22:19:03.212Z,98711.09
2019-01-26T22:21:29.398Z,98708.03
2019-01-26T22:23:55.649Z,98709.16
2019-01-26T22:26:21.913Z,98708.64
2019-01-26T22:28:48.226Z,98703.88
2019-01-26T22:31:14.382Z,98703.98
2019-01-26T22:33:43.376Z,98705.63
2019-01-26T22:36:09.919Z,98712.08
2019-01-26T22:38:36.123Z,98703.77
2019-01-26T22:41:02.362Z,98698.14
2019-01-26T22:43:28.526Z,98702.30
2019-01-26T22:45:54.684Z,98700.23
2019-01-26T22:48:20.948Z,98693.95
2019-01-26T22:50:47.140Z,98701.75
2019-01-26T22:53:19.068Z,98704.84
2019-01-26T22:55:47.201Z,98709.32
2019-01-26T22:58:13.502Z,98713.63
2019-01-26T23:00:52.337Z,98708.84
2019-01-26T23:03:22.244Z,98717.95
2019-01-26T23:05:51.997Z,98715.37
2019-01-26T23:08:24.876Z,98719.19
2019-01-26T23:11:19.777Z,98720.05
2019-01-26T23:13:49.606Z,98729.66
2019-01-26T23:16:37.301Z,98721.92
2019-01-26T23:19:25.218Z,98729.41
2019-01-26T23:22:11.428Z,98720.14
2019-01-26T23:24:43.959Z,98728.66
2019-01-26T23:27:36.386Z,98719.18
2019-01-26T23:30:11.950Z,98719.26
2019-01-26T23:32:38.230Z,98723.67
2019-01-26T23:35:06.692Z,98723.72
2019-01-26T23:37:32.943Z,98727.02
2019-01-26T23:39:59.105Z,98728.05
2019-01-26T23:42:25.371Z,98721.84
2019-01-26T23:44:51.571Z,98720.20
2019-01-26T23:47:17.736Z,98728.79
2019-01-26T23:49:43.982Z,98728.53
2019-01-26T23:52:10.180Z,98737.40
2019-01-26T23:54:36.436Z,98750.11
2019-01-26T23:57:02.599Z,98758.30
2019-01-26T23:59:28.897Z,98754.73
